Time;durP1;ratioP1;P1;durP2;ratioP2;P2;SDS_P1;SDS_P2;PMS_P1;PMS_P2;Temp;Humidity;BMP_temperature;BMP_pressure;BME280_temperature;BME280_humidity;BME280_pressure;Samples;Min_cycle;Max_cycle;Signal;HPM_P1;HPM_P2
2023/08/27 00:02:03;;;;;;;;;;;13.60;99.90;;;;;;5009885;28;19925;-82
2023/08/27 00:04:29;;;;;;;;;;;13.60;99.90;;;;;;5030089;28;19932;-81
2023/08/27 00:06:55;;;;;;;;;;;13.60;99.90;;;;;;5053632;28;19952;-82
2023/08/27 00:09:20;;;;;;;;;;;13.60;99.90;;;;;;5006627;28;19925;-82
2023/08/27 00:11:46;;;;;;;;;;;13.50;99.90;;;;;;5004212;28;19925;-82
2023/08/27 00:14:11;;;;;;;;;;;13.50;99.90;;;;;;5022499;28;19944;-82
2023/08/27 00:16:37;;;;;;;;;;;13.50;99.90;;;;;;5038596;28;19929;-82
2023/08/27 00:19:05;;;;;;;;;;;13.40;99.90;;;;;;5038733;28;19925;-82
2023/08/27 00:21:31;;;;;;;;;;;13.40;99.90;;;;;;5038309;28;19932;-82
2023/08/27 00:23:57;;;;;;;;;;;13.40;99.90;;;;;;5024210;28;19925;-83
2023/08/27 00:26:23;;;;;;;;;;;13.30;99.90;;;;;;5038559;28;19925;-82
2023/08/27 00:28:50;;;;;;;;;;;13.30;99.90;;;;;;5022322;28;20341;-82
2023/08/27 00:31:16;;;;;;;;;;;13.30;99.90;;;;;;5021498;28;19933;-82
2023/08/27 00:33:43;;;;;;;;;;;13.30;99.90;;;;;;5032702;28;22131;-82
2023/08/27 00:36:10;;;;;;;;;;;13.30;99.90;;;;;;5001103;28;19925;-82
2023/08/27 00:38:36;;;;;;;;;;;13.30;99.90;;;;;;5015259;28;19982;-83
2023/08/27 00:41:01;;;;;;;;;;;13.30;99.90;;;;;;5017175;28;19925;-82
2023/08/27 00:43:27;;;;;;;;;;;13.30;99.90;;;;;;5048766;28;20310;-83
2023/08/27 00:45:53;;;;;;;;;;;13.30;99.90;;;;;;5006486;28;19932;-84
2023/08/27 00:48:19;;;;;;;;;;;13.40;99.90;;;;;;5016870;28;19948;-82
2023/08/27 00:50:45;;;;;;;;;;;13.40;99.90;;;;;;5000735;28;19937;-81
2023/08/27 00:53:11;;;;;;;;;;;13.50;99.90;;;;;;5035729;28;19971;-82
2023/08/27 00:55:37;;;;;;;;;;;13.60;99.90;;;;;;5020795;28;19960;-82
2023/08/27 00:58:03;;;;;;;;;;;13.60;99.90;;;;;;5031015;28;19932;-82
2023/08/27 01:00:29;;;;;;;;;;;13.70;99.90;;;;;;5020759;28;19975;-83
2023/08/27 01:02:55;;;;;;;;;;;13.80;99.90;;;;;;5036881;28;19929;-82
2023/08/27 01:05:23;;;;;;;;;;;13.80;99.90;;;;;;5024534;28;19933;-83
2023/08/27 01:07:53;;;;;;;;;;;13.90;99.90;;;;;;5029073;28;19932;-83
2023/08/27 01:10:26;;;;;;;;;;;13.90;99.90;;;;;;5034983;28;19929;-81
2023/08/27 01:13:02;;;;;;;;;;;13.90;99.90;;;;;;5050179;28;19926;-81
2023/08/27 01:15:28;;;;;;;;;;;13.90;99.90;;;;;;5018773;28;20016;-82
2023/08/27 01:17:54;;;;;;;;;;;14.00;99.90;;;;;;5016486;28;19925;-82
2023/08/27 01:20:20;;;;;;;;;;;14.00;99.90;;;;;;5039650;28;20488;-82
2023/08/27 01:22:46;;;;;;;;;;;14.00;99.90;;;;;;5036962;28;20430;-82
2023/08/27 01:25:12;;;;;;;;;;;14.10;99.90;;;;;;5014406;28;19973;-82
2023/08/27 01:27:44;;;;;;;;;;;14.00;99.90;;;;;;5051385;28;19952;-82
2023/08/27 01:30:17;;;;;;;;;;;14.10;99.90;;;;;;5064238;28;19925;-82
2023/08/27 01:32:51;;;;;;;;;;;14.00;99.90;;;;;;5015431;28;19956;-81
2023/08/27 01:35:17;;;;;;;;;;;14.00;99.90;;;;;;5030940;28;19925;-81
2023/08/27 01:37:42;;;;;;;;;;;14.00;99.90;;;;;;5019369;28;19972;-81
2023/08/27 01:40:08;;;;;;;;;;;14.00;99.90;;;;;;5016293;28;19933;-81
2023/08/27 01:42:37;;;;;;;;;;;13.90;99.90;;;;;;5019041;28;19936;-82
2023/08/27 01:45:03;;;;;;;;;;;13.90;99.90;;;;;;5018906;28;19969;-81
2023/08/27 01:47:29;;;;;;;;;;;13.80;99.90;;;;;;5018873;28;19936;-82
2023/08/27 01:49:55;;;;;;;;;;;13.80;99.90;;;;;;5017338;28;19955;-81
2023/08/27 01:52:21;;;;;;;;;;;13.70;99.90;;;;;;5018853;28;20482;-82
2023/08/27 01:54:47;;;;;;;;;;;13.70;99.90;;;;;;5018264;28;19925;-82
2023/08/27 01:57:12;;;;;;;;;;;13.60;99.90;;;;;;5031086;28;19925;-82
2023/08/27 01:59:38;;;;;;;;;;;13.60;99.90;;;;;;5044215;28;19925;-82
2023/08/27 02:02:03;;;;;;;;;;;13.50;99.90;;;;;;5028426;28;19929;-83
2023/08/27 02:04:29;;;;;;;;;;;13.50;99.90;;;;;;5053437;28;19976;-80
2023/08/27 02:06:55;;;;;;;;;;;13.40;99.90;;;;;;5037443;28;19925;-82
2023/08/27 02:09:20;;;;;;;;;;;13.50;99.90;;;;;;5037996;28;19948;-82
2023/08/27 02:11:46;;;;;;;;;;;13.40;99.90;;;;;;5037867;28;19972;-82
2023/08/27 02:14:11;;;;;;;;;;;13.30;99.90;;;;;;5035967;28;19940;-82
2023/08/27 02:16:37;;;;;;;;;;;13.30;99.90;;;;;;5019912;28;19925;-81
2023/08/27 02:19:03;;;;;;;;;;;13.20;99.90;;;;;;5018705;28;19940;-81
2023/08/27 02:21:29;;;;;;;;;;;13.20;99.90;;;;;;5018379;28;19929;-82
2023/08/27 02:23:55;;;;;;;;;;;13.20;99.90;;;;;;5066369;28;20012;-82
2023/08/27 02:26:20;;;;;;;;;;;13.20;99.90;;;;;;5001930;28;19937;-82
2023/08/27 02:28:46;;;;;;;;;;;13.10;99.90;;;;;;5019128;28;20105;-82
2023/08/27 02:31:12;;;;;;;;;;;13.10;99.90;;;;;;5022719;28;19929;-83
2023/08/27 02:33:39;;;;;;;;;;;13.10;99.90;;;;;;5017709;28;19925;-84
2023/08/27 02:36:05;;;;;;;;;;;13.10;99.90;;;;;;5034364;28;19932;-83
2023/08/27 02:38:31;;;;;;;;;;;13.10;99.90;;;;;;5021377;28;19925;-83
2023/08/27 02:40:57;;;;;;;;;;;13.10;99.90;;;;;;5019964;28;19952;-83
2023/08/27 02:43:22;;;;;;;;;;;13.10;99.90;;;;;;5044216;28;19925;-82
2023/08/27 02:45:48;;;;;;;;;;;13.10;99.90;;;;;;5034419;28;19925;-83
2023/08/27 02:48:14;;;;;;;;;;;13.10;99.90;;;;;;5015553;28;19925;-82
2023/08/27 02:50:39;;;;;;;;;;;13.10;99.90;;;;;;5019272;28;19988;-82
2023/08/27 02:53:05;;;;;;;;;;;13.10;99.90;;;;;;5068922;28;19941;-82
2023/08/27 02:55:34;;;;;;;;;;;13.10;99.90;;;;;;5020758;28;19925;-83
2023/08/27 02:57:59;;;;;;;;;;;13.10;99.90;;;;;;5034162;28;19941;-83
2023/08/27 03:00:25;;;;;;;;;;;13.10;99.90;;;;;;5023972;28;19929;-83
2023/08/27 03:02:51;;;;;;;;;;;13.20;99.90;;;;;;5009313;28;20015;-82
2023/08/27 03:05:17;;;;;;;;;;;13.20;99.90;;;;;;5018617;28;19940;-83
2023/08/27 03:07:43;;;;;;;;;;;13.30;99.90;;;;;;5019984;28;19932;-83
2023/08/27 03:10:08;;;;;;;;;;;13.30;99.90;;;;;;5007169;28;19928;-82
2023/08/27 03:12:34;;;;;;;;;;;13.40;99.90;;;;;;5041765;28;20376;-83
2023/08/27 03:14:59;;;;;;;;;;;13.40;99.90;;;;;;5035618;28;19929;-83
2023/08/27 03:17:25;;;;;;;;;;;13.50;99.90;;;;;;5021958;28;20024;-82
2023/08/27 03:19:50;;;;;;;;;;;13.50;99.90;;;;;;5052014;28;19935;-83
2023/08/27 03:22:16;;;;;;;;;;;13.60;99.90;;;;;;5018971;28;19937;-83
2023/08/27 03:24:42;;;;;;;;;;;13.60;99.90;;;;;;5018294;28;19971;-83
2023/08/27 03:27:07;;;;;;;;;;;13.70;99.90;;;;;;5002169;28;19925;-83
2023/08/27 03:29:33;;;;;;;;;;;13.70;99.90;;;;;;5018171;28;19936;-83
2023/08/27 03:31:58;;;;;;;;;;;13.70;99.90;;;;;;5018855;28;19965;-83
2023/08/27 03:34:24;;;;;;;;;;;13.80;99.90;;;;;;5051236;28;19926;-83
2023/08/27 03:36:50;;;;;;;;;;;13.80;99.90;;;;;;5019630;28;19925;-83
2023/08/27 03:39:15;;;;;;;;;;;13.90;99.90;;;;;;5016358;28;19936;-84
2023/08/27 03:41:41;;;;;;;;;;;13.90;99.90;;;;;;5018168;28;19925;-83
2023/08/27 03:44:06;;;;;;;;;;;13.90;99.90;;;;;;5023309;28;19929;-83
2023/08/27 03:46:32;;;;;;;;;;;13.90;99.90;;;;;;5035964;28;19971;-84
2023/08/27 03:49:01;;;;;;;;;;;13.90;99.90;;;;;;5017391;28;20277;-84
2023/08/27 03:51:30;;;;;;;;;;;13.90;99.90;;;;;;5017220;28;19979;-84
2023/08/27 03:53:57;;;;;;;;;;;13.80;99.90;;;;;;5050321;28;19929;-84
2023/08/27 03:56:23;;;;;;;;;;;13.90;99.90;;;;;;5022182;28;20319;-84
2023/08/27 03:58:48;;;;;;;;;;;13.80;99.90;;;;;;4999674;28;19925;-83
2023/08/27 04:01:14;;;;;;;;;;;13.80;99.90;;;;;;5002385;28;20490;-83
2023/08/27 04:03:40;;;;;;;;;;;13.70;99.90;;;;;;5037799;28;19935;-84
2023/08/27 04:06:06;;;;;;;;;;;13.70;99.90;;;;;;5019382;28;19983;-83
2023/08/27 04:08:32;;;;;;;;;;;13.60;99.90;;;;;;5016963;28;20031;-83
2023/08/27 04:10:57;;;;;;;;;;;13.50;99.90;;;;;;4999271;28;19929;-83
2023/08/27 04:13:23;;;;;;;;;;;13.50;99.90;;;;;;5024396;28;19925;-83
2023/08/27 04:16:02;;;;;;;;;;;13.50;99.90;;;;;;5033970;28;19981;-84
2023/08/27 04:18:28;;;;;;;;;;;13.40;99.90;;;;;;5033816;28;20442;-83
2023/08/27 04:20:56;;;;;;;;;;;13.40;99.90;;;;;;5031693;28;19925;-83
2023/08/27 04:23:22;;;;;;;;;;;13.40;99.90;;;;;;5001807;28;19933;-84
2023/08/27 04:25:48;;;;;;;;;;;13.30;99.90;;;;;;5032798;28;19932;-83
2023/08/27 04:28:14;;;;;;;;;;;13.20;99.90;;;;;;5017625;28;19940;-83
2023/08/27 04:30:40;;;;;;;;;;;13.20;99.90;;;;;;5018020;28;19925;-83
2023/08/27 04:33:06;;;;;;;;;;;13.20;99.90;;;;;;5016992;28;21422;-85
2023/08/27 04:35:31;;;;;;;;;;;13.20;99.90;;;;;;5036235;28;20400;-83
2023/08/27 04:37:57;;;;;;;;;;;13.20;99.90;;;;;;5050870;28;19925;-83
2023/08/27 04:40:23;;;;;;;;;;;13.20;99.90;;;;;;5000916;28;19932;-83
2023/08/27 04:42:48;;;;;;;;;;;13.10;99.90;;;;;;5020679;28;19938;-83
2023/08/27 04:45:14;;;;;;;;;;;13.10;99.90;;;;;;5032669;28;20572;-83
2023/08/27 04:47:41;;;;;;;;;;;13.10;99.90;;;;;;5067740;28;19929;-82
2023/08/27 04:50:07;;;;;;;;;;;13.00;99.90;;;;;;5032442;28;20000;-83
2023/08/27 04:52:33;;;;;;;;;;;13.10;99.90;;;;;;4998881;28;19963;-83
2023/08/27 04:54:59;;;;;;;;;;;13.10;99.90;;;;;;5031083;28;19925;-83
2023/08/27 04:57:25;;;;;;;;;;;13.10;99.90;;;;;;5029853;28;19936;-83
2023/08/27 04:59:50;;;;;;;;;;;13.20;99.90;;;;;;5005134;28;19932;-83
2023/08/27 05:02:16;;;;;;;;;;;13.20;99.90;;;;;;5038751;28;19947;-83
2023/08/27 05:04:43;;;;;;;;;;;13.30;99.90;;;;;;5034397;28;19925;-83
2023/08/27 05:07:10;;;;;;;;;;;13.30;99.90;;;;;;5038072;28;20012;-84
2023/08/27 05:09:36;;;;;;;;;;;13.30;99.90;;;;;;5054288;28;20360;-84
2023/08/27 05:12:01;;;;;;;;;;;13.40;99.90;;;;;;5053704;28;19984;-84
2023/08/27 05:14:27;;;;;;;;;;;13.50;99.90;;;;;;5047097;28;19931;-84
2023/08/27 05:16:53;;;;;;;;;;;13.60;99.90;;;;;;5054430;28;20018;-84
2023/08/27 05:19:18;;;;;;;;;;;13.70;99.90;;;;;;5037219;28;19988;-84
2023/08/27 05:21:44;;;;;;;;;;;13.80;99.90;;;;;;5019299;28;19929;-84
2023/08/27 05:24:09;;;;;;;;;;;13.90;99.90;;;;;;5053216;28;19964;-84
2023/08/27 05:26:35;;;;;;;;;;;14.00;99.90;;;;;;5032587;28;19933;-84
2023/08/27 05:29:01;;;;;;;;;;;14.00;99.90;;;;;;5002977;28;19933;-85
2023/08/27 05:31:26;;;;;;;;;;;14.10;99.90;;;;;;5001971;28;19925;-84
2023/08/27 05:33:52;;;;;;;;;;;14.20;99.90;;;;;;5015781;28;19925;-84
2023/08/27 05:36:18;;;;;;;;;;;14.20;99.90;;;;;;5012251;28;19930;-84
2023/08/27 05:38:43;;;;;;;;;;;14.30;99.90;;;;;;5016272;28;19925;-83
2023/08/27 05:41:09;;;;;;;;;;;14.40;99.90;;;;;;5024059;28;19925;-85
2023/08/27 05:43:35;;;;;;;;;;;14.40;99.90;;;;;;5001139;28;19926;-83
2023/08/27 05:46:00;;;;;;;;;;;14.40;99.90;;;;;;5029529;28;19933;-85
2023/08/27 05:48:26;;;;;;;;;;;14.40;99.90;;;;;;5002335;28;19961;-86
2023/08/27 05:50:51;;;;;;;;;;;14.40;99.90;;;;;;5002959;28;19996;-90
2023/08/27 05:53:17;;;;;;;;;;;14.40;99.90;;;;;;5015153;28;19960;-88
2023/08/27 05:55:43;;;;;;;;;;;14.40;99.90;;;;;;5006115;28;19956;-87
2023/08/27 05:58:08;;;;;;;;;;;14.40;99.90;;;;;;5006136;28;19972;-88
2023/08/27 06:00:34;;;;;;;;;;;14.30;99.90;;;;;;5022544;28;19968;-87
2023/08/27 06:03:00;;;;;;;;;;;14.30;99.90;;;;;;5007140;28;20475;-87
2023/08/27 06:05:25;;;;;;;;;;;14.30;99.90;;;;;;5023226;28;19929;-87
2023/08/27 06:07:51;;;;;;;;;;;14.30;99.90;;;;;;5021547;28;19963;-88
2023/08/27 06:10:16;;;;;;;;;;;14.20;99.90;;;;;;5041150;28;19929;-89
2023/08/27 06:12:42;;;;;;;;;;;14.30;99.90;;;;;;5024865;28;19925;-88
2023/08/27 06:15:08;;;;;;;;;;;14.20;99.90;;;;;;5010278;28;19964;-88
2023/08/27 06:17:33;;;;;;;;;;;14.20;99.90;;;;;;5039171;28;19940;-88
2023/08/27 06:19:59;;;;;;;;;;;14.20;99.90;;;;;;5054629;28;19973;-88
2023/08/27 06:22:25;;;;;;;;;;;14.20;99.90;;;;;;5024606;28;19965;-88
2023/08/27 06:24:50;;;;;;;;;;;14.20;99.90;;;;;;5040494;28;20396;-88
2023/08/27 06:27:16;;;;;;;;;;;14.20;99.90;;;;;;5041181;28;20023;-88
2023/08/27 06:29:45;;;;;;;;;;;14.20;99.90;;;;;;5039168;28;20016;-88
2023/08/27 06:32:10;;;;;;;;;;;14.20;99.90;;;;;;5021663;28;19977;-88
2023/08/27 06:34:36;;;;;;;;;;;14.30;99.90;;;;;;5002842;28;19929;-88
2023/08/27 06:37:02;;;;;;;;;;;14.20;99.90;;;;;;5039872;28;20292;-88
2023/08/27 06:39:27;;;;;;;;;;;14.20;99.90;;;;;;4999177;28;20508;-88
2023/08/27 06:41:53;;;;;;;;;;;14.20;99.90;;;;;;5052277;28;19925;-88
2023/08/27 06:44:19;;;;;;;;;;;14.20;99.90;;;;;;5043668;28;19932;-89
2023/08/27 06:46:45;;;;;;;;;;;14.20;99.90;;;;;;5005861;28;19929;-88
2023/08/27 06:49:10;;;;;;;;;;;14.30;99.90;;;;;;5014280;28;20269;-87
2023/08/27 06:51:36;;;;;;;;;;;14.40;99.90;;;;;;5017164;28;20754;-88
2023/08/27 06:54:03;;;;;;;;;;;14.40;99.90;;;;;;5005387;28;20031;-87
2023/08/27 06:56:28;;;;;;;;;;;14.40;99.90;;;;;;5037809;28;19932;-87
2023/08/27 06:58:54;;;;;;;;;;;14.40;99.90;;;;;;5018485;28;20413;-88
2023/08/27 07:01:19;;;;;;;;;;;14.40;99.90;;;;;;5065793;28;19959;-87
2023/08/27 07:03:45;;;;;;;;;;;14.40;99.90;;;;;;5049304;28;20696;-86
2023/08/27 07:06:10;;;;;;;;;;;14.40;99.90;;;;;;4999099;28;20431;-87
2023/08/27 07:08:36;;;;;;;;;;;14.30;99.90;;;;;;5033675;28;19933;-87
2023/08/27 07:11:03;;;;;;;;;;;14.30;99.90;;;;;;4997166;28;19929;-87
2023/08/27 07:13:31;;;;;;;;;;;14.30;99.90;;;;;;5021738;28;19933;-87
2023/08/27 07:15:57;;;;;;;;;;;14.30;99.90;;;;;;5000925;28;19936;-87
2023/08/27 07:18:23;;;;;;;;;;;14.20;99.90;;;;;;5016162;28;19926;-87
2023/08/27 07:20:48;;;;;;;;;;;14.30;99.90;;;;;;5013978;28;19929;-87
2023/08/27 07:23:15;;;;;;;;;;;14.30;99.90;;;;;;5018494;28;20292;-87
2023/08/27 07:25:41;;;;;;;;;;;14.40;99.90;;;;;;5018364;28;19925;-87
2023/08/27 07:28:07;;;;;;;;;;;14.80;99.90;;;;;;5016308;28;19929;-82
2023/08/27 07:30:32;;;;;;;;;;;15.50;99.90;;;;;;5036819;28;19929;-83
2023/08/27 07:32:58;;;;;;;;;;;16.30;99.90;;;;;;5042295;28;19933;-83
2023/08/27 07:35:24;;;;;;;;;;;16.80;99.90;;;;;;5043174;28;19929;-82
2023/08/27 07:37:50;;;;;;;;;;;17.20;99.90;;;;;;5067056;28;19925;-82
2023/08/27 07:40:15;;;;;;;;;;;17.10;99.90;;;;;;5065499;28;19933;-82
2023/08/27 07:42:41;;;;;;;;;;;16.80;99.90;;;;;;5029616;28;19929;-82
2023/08/27 07:45:07;;;;;;;;;;;16.70;99.90;;;;;;5033945;28;19929;-82
2023/08/27 07:47:33;;;;;;;;;;;16.90;99.90;;;;;;5037390;28;19951;-82
2023/08/27 07:49:59;;;;;;;;;;;17.50;99.90;;;;;;5043175;28;19925;-83
2023/08/27 07:52:24;;;;;;;;;;;18.20;99.90;;;;;;5037252;28;19925;-82
2023/08/27 07:54:50;;;;;;;;;;;18.90;99.90;;;;;;5036145;28;19949;-83
2023/08/27 07:57:16;;;;;;;;;;;19.40;99.90;;;;;;5003318;28;19983;-83
2023/08/27 07:59:42;;;;;;;;;;;19.90;99.90;;;;;;5040660;28;19925;-82
2023/08/27 08:02:08;;;;;;;;;;;20.30;99.90;;;;;;5038500;28;19980;-83
2023/08/27 08:04:33;;;;;;;;;;;20.70;99.90;;;;;;5022144;28;19925;-83
2023/08/27 08:06:59;;;;;;;;;;;21.00;99.90;;;;;;5018474;28;19925;-82
2023/08/27 08:09:25;;;;;;;;;;;21.20;99.90;;;;;;5073148;28;19925;-83
2023/08/27 08:11:50;;;;;;;;;;;21.30;99.90;;;;;;5023177;28;20356;-83
2023/08/27 08:14:16;;;;;;;;;;;21.50;99.90;;;;;;5072655;28;19929;-83
2023/08/27 08:16:41;;;;;;;;;;;21.70;99.90;;;;;;5004393;28;19925;-84
2023/08/27 08:19:07;;;;;;;;;;;21.80;99.90;;;;;;5022247;28;20383;-84
2023/08/27 08:21:32;;;;;;;;;;;21.90;99.90;;;;;;5055795;28;19929;-84
2023/08/27 08:23:58;;;;;;;;;;;22.00;99.90;;;;;;5040268;28;19948;-84
2023/08/27 08:26:24;;;;;;;;;;;22.00;99.90;;;;;;5032475;28;19928;-83
2023/08/27 08:28:49;;;;;;;;;;;22.00;99.90;;;;;;5002426;28;19932;-86
2023/08/27 08:31:15;;;;;;;;;;;22.10;99.90;;;;;;5017504;28;19979;-87
2023/08/27 08:33:40;;;;;;;;;;;22.10;99.90;;;;;;5001486;28;19933;-89
2023/08/27 08:36:06;;;;;;;;;;;22.30;99.90;;;;;;5031282;28;19929;-85
2023/08/27 08:38:33;;;;;;;;;;;22.40;99.90;;;;;;5030843;28;19933;-87
2023/08/27 08:41:00;;;;;;;;;;;22.60;99.90;;;;;;5031141;28;20414;-87
2023/08/27 08:43:29;;;;;;;;;;;22.70;99.90;;;;;;5032570;28;19929;-88
2023/08/27 08:45:57;;;;;;;;;;;22.80;99.90;;;;;;5031602;28;19941;-87
2023/08/27 08:48:25;;;;;;;;;;;22.90;99.90;;;;;;5048503;28;19943;-87
2023/08/27 08:50:53;;;;;;;;;;;23.10;99.90;;;;;;5015641;28;19932;-87
2023/08/27 08:53:19;;;;;;;;;;;23.10;99.90;;;;;;5028430;28;19929;-86
2023/08/27 08:55:51;;;;;;;;;;;23.10;99.90;;;;;;5022349;28;20004;-89
2023/08/27 08:58:17;;;;;;;;;;;23.20;99.90;;;;;;5046683;28;19929;-87
2023/08/27 09:00:43;;;;;;;;;;;23.20;99.90;;;;;;5021897;28;19925;-88
2023/08/27 09:03:09;;;;;;;;;;;23.30;99.90;;;;;;5025870;28;19955;-87
2023/08/27 09:05:36;;;;;;;;;;;23.40;99.90;;;;;;5038332;28;20416;-88
2023/08/27 09:08:03;;;;;;;;;;;23.30;99.90;;;;;;5037894;28;19932;-90
2023/08/27 09:10:30;;;;;;;;;;;23.30;99.90;;;;;;5021663;28;20380;-88
2023/08/27 09:12:57;;;;;;;;;;;23.30;99.90;;;;;;5021896;28;19929;-89
2023/08/27 09:15:23;;;;;;;;;;;23.50;99.90;;;;;;5014592;28;19925;-87
2023/08/27 09:17:48;;;;;;;;;;;23.50;99.90;;;;;;5030884;28;19926;-89
2023/08/27 09:20:14;;;;;;;;;;;23.60;99.90;;;;;;5051406;28;20412;-89
2023/08/27 09:22:43;;;;;;;;;;;23.60;99.90;;;;;;5020592;28;19935;-87
2023/08/27 09:25:09;;;;;;;;;;;23.60;99.90;;;;;;5037790;28;20348;-87
2023/08/27 09:27:35;;;;;;;;;;;23.60;99.90;;;;;;5066805;28;20000;-88
2023/08/27 09:30:02;;;;;;;;;;;23.30;99.90;;;;;;5022338;28;19926;-87
2023/08/27 09:32:28;;;;;;;;;;;22.90;99.90;;;;;;5041129;28;19929;-87
2023/08/27 09:35:00;;;;;;;;;;;22.90;99.90;;;;;;5026085;28;19926;-88
2023/08/27 09:37:27;;;;;;;;;;;23.20;99.90;;;;;;5038981;28;20014;-87
2023/08/27 09:39:52;;;;;;;;;;;23.40;99.90;;;;;;5006112;28;20242;-90
2023/08/27 09:42:18;;;;;;;;;;;23.60;99.90;;;;;;5040606;28;19936;-87
2023/08/27 09:44:51;;;;;;;;;;;23.20;99.90;;;;;;5024985;28;19932;-88
2023/08/27 09:47:28;;;;;;;;;;;22.70;99.90;;;;;;5026054;28;19992;-88
2023/08/27 09:49:54;;;;;;;;;;;22.30;99.90;;;;;;5025193;28;19925;-88
2023/08/27 09:52:23;;;;;;;;;;;22.30;99.90;;;;;;5025217;28;19925;-87
2023/08/27 09:54:50;;;;;;;;;;;22.20;99.90;;;;;;5050557;28;19956;-88
2023/08/27 09:57:19;;;;;;;;;;;22.20;99.90;;;;;;5037537;28;20155;-88
2023/08/27 09:59:46;;;;;;;;;;;22.40;99.90;;;;;;5034712;28;20308;-88
2023/08/27 10:02:12;;;;;;;;;;;22.20;99.90;;;;;;5023428;28;19925;-87
2023/08/27 10:04:47;;;;;;;;;;;22.00;99.90;;;;;;5046113;28;20383;-88
2023/08/27 10:07:13;;;;;;;;;;;21.60;99.90;;;;;;5022582;28;19925;-89
2023/08/27 10:09:51;;;;;;;;;;;21.60;99.90;;;;;;5022324;28;19944;-88
2023/08/27 10:12:17;;;;;;;;;;;21.80;99.90;;;;;;5006496;28;19925;-88
2023/08/27 10:14:43;;;;;;;;;;;22.40;99.90;;;;;;5030827;28;20395;-88
2023/08/27 10:17:10;;;;;;;;;;;22.90;99.90;;;;;;5030943;28;19929;-88
2023/08/27 10:19:36;;;;;;;;;;;23.40;99.90;;;;;;5057542;28;19925;-89
2023/08/27 10:22:03;;;;;;;;;;;23.40;99.90;;;;;;5022710;28;19932;-87
2023/08/27 10:24:29;;;;;;;;;;;23.20;99.90;;;;;;5018220;28;19925;-89
2023/08/27 10:26:57;;;;;;;;;;;23.10;99.90;;;;;;5020311;28;19931;-88
2023/08/27 10:29:24;;;;;;;;;;;22.90;99.90;;;;;;5019694;28;19933;-87
2023/08/27 10:31:50;;;;;;;;;;;22.80;99.90;;;;;;5012026;28;19943;-88
2023/08/27 10:34:16;;;;;;;;;;;22.60;99.90;;;;;;5017027;28;20763;-87
2023/08/27 10:36:43;;;;;;;;;;;22.40;99.90;;;;;;5002305;28;20615;-88
2023/08/27 10:39:09;;;;;;;;;;;22.20;99.90;;;;;;5052255;28;19925;-88
2023/08/27 10:41:35;;;;;;;;;;;21.90;99.90;;;;;;5023769;28;19931;-80
2023/08/27 10:44:01;;;;;;;;;;;21.70;99.90;;;;;;5007755;28;19948;-81
2023/08/27 10:46:26;;;;;;;;;;;21.40;99.90;;;;;;5040718;28;19933;-80
2023/08/27 10:48:53;;;;;;;;;;;21.20;99.90;;;;;;5009536;28;19936;-80
2023/08/27 10:51:21;;;;;;;;;;;21.00;99.90;;;;;;5042425;28;19932;-80
2023/08/27 10:53:49;;;;;;;;;;;20.90;99.90;;;;;;5040375;28;19933;-82
2023/08/27 10:56:26;;;;;;;;;;;20.80;99.90;;;;;;5036420;28;20327;-81
2023/08/27 10:58:51;;;;;;;;;;;20.70;99.90;;;;;;5006664;28;19972;-81
2023/08/27 11:01:18;;;;;;;;;;;20.90;99.90;;;;;;5022859;28;19933;-80
2023/08/27 11:03:57;;;;;;;;;;;20.90;99.90;;;;;;5031009;28;19929;-80
2023/08/27 11:06:46;;;;;;;;;;;21.00;99.90;;;;;;5059567;28;20091;-80
2023/08/27 11:09:14;;;;;;;;;;;20.90;99.90;;;;;;5025015;28;19929;-80
2023/08/27 11:11:42;;;;;;;;;;;20.80;99.90;;;;;;5022778;28;19931;-80
2023/08/27 11:14:08;;;;;;;;;;;20.70;99.90;;;;;;5040480;28;20380;-79
2023/08/27 11:16:48;;;;;;;;;;;20.60;99.90;;;;;;5030250;28;19932;-79
2023/08/27 11:19:15;;;;;;;;;;;20.70;99.90;;;;;;5021921;28;19936;-79
2023/08/27 11:21:41;;;;;;;;;;;20.90;99.90;;;;;;5020670;28;19936;-80
2023/08/27 11:24:17;;;;;;;;;;;20.90;99.90;;;;;;5022714;28;19987;-80
2023/08/27 11:26:43;;;;;;;;;;;20.90;99.90;;;;;;5069063;28;19931;-80
2023/08/27 11:29:09;;;;;;;;;;;20.90;99.90;;;;;;5071564;28;19925;-80
2023/08/27 11:31:37;;;;;;;;;;;20.90;99.90;;;;;;5019245;28;19971;-82
2023/08/27 11:34:04;;;;;;;;;;;20.80;99.90;;;;;;5037020;28;19964;-83
2023/08/27 11:36:30;;;;;;;;;;;20.50;99.90;;;;;;5054841;28;19925;-84
2023/08/27 11:38:59;;;;;;;;;;;20.10;99.90;;;;;;5020508;28;19936;-87
2023/08/27 11:41:25;;;;;;;;;;;19.70;99.90;;;;;;5037779;28;19960;-86
2023/08/27 11:43:54;;;;;;;;;;;19.30;99.90;;;;;;5020247;28;19929;-86
2023/08/27 11:46:23;;;;;;;;;;;18.90;99.90;;;;;;5038945;28;19925;-88
2023/08/27 11:48:49;;;;;;;;;;;18.50;99.90;;;;;;5004231;28;20469;-86
2023/08/27 11:51:15;;;;;;;;;;;18.20;99.90;;;;;;5038423;28;19925;-83
2023/08/27 11:53:42;;;;;;;;;;;17.80;99.90;;;;;;5051013;28;19932;-84
2023/08/27 11:56:08;;;;;;;;;;;17.40;99.90;;;;;;5022612;28;19925;-82
2023/08/27 11:58:33;;;;;;;;;;;17.10;99.90;;;;;;5050495;28;19971;-84
2023/08/27 12:00:59;;;;;;;;;;;16.90;99.90;;;;;;5057692;28;20052;-84
2023/08/27 12:03:25;;;;;;;;;;;16.70;99.90;;;;;;5023741;28;19925;-87
2023/08/27 12:05:51;;;;;;;;;;;16.70;99.90;;;;;;5005662;28;20308;-86
2023/08/27 12:08:17;;;;;;;;;;;16.80;99.90;;;;;;5007556;28;19929;-86
2023/08/27 12:10:45;;;;;;;;;;;17.00;99.90;;;;;;5021441;28;19994;-84
2023/08/27 12:13:11;;;;;;;;;;;17.40;99.90;;;;;;5052565;28;19936;-83
2023/08/27 12:15:36;;;;;;;;;;;17.80;99.90;;;;;;5021781;28;19992;-84
2023/08/27 12:18:09;;;;;;;;;;;18.30;99.90;;;;;;5038169;28;20004;-84
2023/08/27 12:20:36;;;;;;;;;;;18.60;99.90;;;;;;5020837;28;19925;-84
2023/08/27 12:23:11;;;;;;;;;;;18.70;99.90;;;;;;5047879;28;19960;-85
2023/08/27 12:25:46;;;;;;;;;;;18.90;99.90;;;;;;5053430;28;20444;-84
2023/08/27 12:28:11;;;;;;;;;;;18.90;99.90;;;;;;5049896;28;20441;-83
2023/08/27 12:30:37;;;;;;;;;;;18.90;99.90;;;;;;5030665;28;19929;-84
2023/08/27 12:33:03;;;;;;;;;;;18.80;99.90;;;;;;5037368;28;19971;-84
2023/08/27 12:35:29;;;;;;;;;;;18.80;99.90;;;;;;5005396;28;20388;-83
2023/08/27 12:37:55;;;;;;;;;;;18.60;99.90;;;;;;5021763;28;19931;-83
2023/08/27 12:40:21;;;;;;;;;;;18.50;99.90;;;;;;5019132;28;19933;-83
2023/08/27 12:42:47;;;;;;;;;;;18.40;99.90;;;;;;5031537;28;20022;-84
2023/08/27 12:45:12;;;;;;;;;;;18.40;99.90;;;;;;5002381;28;20281;-83
2023/08/27 12:47:38;;;;;;;;;;;18.30;99.90;;;;;;5036592;28;19925;-82
2023/08/27 12:50:04;;;;;;;;;;;18.30;99.90;;;;;;5053092;28;19925;-82
2023/08/27 12:52:30;;;;;;;;;;;18.30;99.90;;;;;;5037877;28;19929;-82
2023/08/27 12:54:55;;;;;;;;;;;18.30;99.90;;;;;;5019045;28;19929;-82
2023/08/27 12:57:21;;;;;;;;;;;18.30;99.90;;;;;;5003320;28;19929;-82
2023/08/27 12:59:47;;;;;;;;;;;18.30;99.90;;;;;;5020421;28;20461;-81
2023/08/27 13:02:12;;;;;;;;;;;18.30;99.90;;;;;;5052640;28;19936;-82
2023/08/27 13:04:38;;;;;;;;;;;18.40;99.90;;;;;;5035450;28;19925;-82
2023/08/27 13:07:03;;;;;;;;;;;18.40;99.90;;;;;;5031307;28;19979;-81
2023/08/27 13:09:29;;;;;;;;;;;18.40;99.90;;;;;;5028143;28;19989;-82
2023/08/27 13:11:55;;;;;;;;;;;18.40;99.90;;;;;;5021348;28;19925;-82
2023/08/27 13:14:21;;;;;;;;;;;18.40;99.90;;;;;;5051213;28;19936;-82
2023/08/27 13:16:47;;;;;;;;;;;18.40;99.90;;;;;;5033821;28;19940;-81
2023/08/27 13:19:13;;;;;;;;;;;18.30;99.90;;;;;;5043044;28;19929;-83
2023/08/27 13:21:40;;;;;;;;;;;18.30;99.90;;;;;;5023529;28;19931;-83
2023/08/27 13:24:05;;;;;;;;;;;18.20;99.90;;;;;;5035742;28;19964;-83
2023/08/27 13:26:31;;;;;;;;;;;18.20;99.90;;;;;;5001717;28;20124;-82
2023/08/27 13:28:57;;;;;;;;;;;18.00;99.90;;;;;;5014376;28;19947;-83
2023/08/27 13:31:22;;;;;;;;;;;17.90;99.90;;;;;;5053043;28;19926;-83
2023/08/27 13:33:48;;;;;;;;;;;17.90;99.90;;;;;;5019227;28;19929;-82
2023/08/27 13:36:14;;;;;;;;;;;18.10;99.90;;;;;;5036365;28;19926;-83
2023/08/27 13:38:40;;;;;;;;;;;18.50;99.90;;;;;;5041743;28;20368;-83
2023/08/27 13:41:05;;;;;;;;;;;18.90;99.90;;;;;;5020354;28;19925;-82
2023/08/27 13:43:31;;;;;;;;;;;19.20;99.90;;;;;;5033353;28;19925;-83
2023/08/27 13:45:56;;;;;;;;;;;19.40;99.90;;;;;;5009591;28;19940;-83
2023/08/27 13:48:22;;;;;;;;;;;19.20;99.90;;;;;;5004083;28;19925;-83
2023/08/27 13:50:48;;;;;;;;;;;19.00;99.90;;;;;;5019658;28;19929;-83
2023/08/27 13:53:14;;;;;;;;;;;18.80;99.90;;;;;;5032425;28;19975;-82
2023/08/27 13:55:39;;;;;;;;;;;18.60;99.90;;;;;;5036956;28;19925;-83
2023/08/27 13:58:05;;;;;;;;;;;18.40;99.90;;;;;;5035050;28;20322;-82
2023/08/27 14:00:33;;;;;;;;;;;18.30;99.90;;;;;;5020672;28;19925;-82
2023/08/27 14:02:59;;;;;;;;;;;18.10;99.90;;;;;;5020245;28;19929;-83
2023/08/27 14:05:25;;;;;;;;;;;18.00;99.90;;;;;;5031343;28;19932;-82
2023/08/27 14:07:50;;;;;;;;;;;17.80;99.90;;;;;;5020836;28;19924;-83
2023/08/27 14:10:16;;;;;;;;;;;17.70;99.90;;;;;;5012827;28;19933;-84
2023/08/27 14:12:43;;;;;;;;;;;17.60;99.90;;;;;;5024418;28;19971;-88